Time;durP1;ratioP1;P1;durP2;ratioP2;P2;SDS_P1;SDS_P2;PMS_P1;PMS_P2;Temp;Humidity;BMP_temperature;BMP_pressure;BME280_temperature;BME280_humidity;BME280_pressure;Samples;Min_cycle;Max_cycle;Signal;HPM_P1;HPM_P2
2022/08/18 00:01:41;;;;;;;5.55;4.97;;;;;;;21.13;67.50;100318.88;5051052;28;20223;-83
2022/08/18 00:04:10;;;;;;;5.70;5.30;;;;;;;21.15;67.54;100324.09;5045314;28;20233;-82
2022/08/18 00:06:37;;;;;;;5.35;4.88;;;;;;;21.18;67.43;100326.47;5048833;28;20201;-83
2022/08/18 00:09:07;;;;;;;8.53;5.70;;;;;;;21.22;67.31;100327.84;5046848;28;20205;-83
2022/08/18 00:11:37;;;;;;;6.28;5.60;;;;;;;21.24;67.56;100331.22;5047744;28;20209;-82
2022/08/18 00:14:04;;;;;;;5.82;5.20;;;;;;;21.26;67.57;100334.63;5049873;28;20591;-83
2022/08/18 00:16:31;;;;;;;8.20;6.03;;;;;;;21.28;67.55;100327.16;5053363;28;20682;-84
2022/08/18 00:18:57;;;;;;;6.38;5.78;;;;;;;21.31;67.68;100325.97;5041916;28;20265;-83
2022/08/18 00:21:25;;;;;;;6.80;6.20;;;;;;;21.32;67.68;100319.50;5046478;28;20284;-82
2022/08/18 00:23:53;;;;;;;7.67;7.07;;;;;;;21.36;67.66;100323.56;5049768;28;20227;-83
2022/08/18 00:26:19;;;;;;;9.45;8.48;;;;;;;21.37;67.92;100327.97;5052365;28;20227;-84
2022/08/18 00:28:46;;;;;;;9.00;8.20;;;;;;;21.38;68.01;100332.38;5050466;28;20796;-82
2022/08/18 00:31:12;;;;;;;8.77;7.90;;;;;;;21.40;68.01;100333.88;5053248;28;20218;-83
2022/08/18 00:33:39;;;;;;;9.75;8.50;;;;;;;21.41;68.11;100324.75;5041309;28;20248;-82
2022/08/18 00:36:05;;;;;;;9.98;8.98;;;;;;;21.42;68.06;100329.13;5051128;28;20734;-82
2022/08/18 00:38:33;;;;;;;9.90;9.00;;;;;;;21.43;68.36;100336.25;5044392;28;21020;-84
2022/08/18 00:41:02;;;;;;;9.63;8.73;;;;;;;21.43;68.49;100333.53;5053668;28;20229;-84
2022/08/18 00:43:35;;;;;;;12.15;10.07;;;;;;;21.43;68.58;100336.25;5048488;28;20232;-83
2022/08/18 00:46:02;;;;;;;11.10;10.10;;;;;;;21.45;68.76;100330.66;5046942;28;20205;-82
2022/08/18 00:48:30;;;;;;;11.02;9.93;;;;;;;21.44;68.90;100335.22;5050350;28;20208;-85
2022/08/18 00:50:59;;;;;;;11.32;9.77;;;;;;;21.46;69.04;100340.47;5044411;28;20218;-84
2022/08/18 00:53:32;;;;;;;11.50;10.45;;;;;;;21.44;69.32;100347.94;5050423;28;20237;-84
2022/08/18 00:56:05;;;;;;;12.40;10.88;;;;;;;21.43;69.36;100347.09;5046097;28;20289;-85
2022/08/18 00:58:36;;;;;;;11.48;10.18;;;;;;;21.41;69.57;100351.84;5049611;28;20212;-85
2022/08/18 01:01:05;;;;;;;11.98;10.95;;;;;;;21.41;69.59;100348.28;5046476;28;20213;-83
2022/08/18 01:03:34;;;;;;;11.88;10.75;;;;;;;21.41;69.63;100348.28;5052820;28;20229;-83
2022/08/18 01:06:04;;;;;;;9.90;9.10;;;;;;;21.39;69.65;100348.44;5051270;28;20205;-84
2022/08/18 01:08:31;;;;;;;9.73;8.85;;;;;;;21.33;69.21;100341.00;5044257;28;20198;-82
2022/08/18 01:11:00;;;;;;;14.55;9.93;;;;;;;21.24;69.23;100342.06;5042403;28;20223;-83
2022/08/18 01:13:31;;;;;;;9.52;8.70;;;;;;;21.14;69.25;100342.22;5051911;28;20571;-85
2022/08/18 01:15:58;;;;;;;10.70;9.77;;;;;;;21.04;69.16;100343.44;5049980;28;20213;-82
2022/08/18 01:24:03;;;;;;;12.53;11.07;;;;;;;20.73;70.39;100343.31;5052979;28;20238;-84
2022/08/18 01:26:30;;;;;;;12.43;11.33;;;;;;;20.65;70.64;100346.84;5042751;28;20206;-82
2022/08/18 01:29:04;;;;;;;13.97;12.10;;;;;;;20.56;71.18;100339.75;5048199;28;20202;-82
2022/08/18 01:31:36;;;;;;;13.63;12.23;;;;;;;20.48;71.48;100336.19;5048758;28;20225;-83
2022/08/18 01:34:05;;;;;;;12.53;11.33;;;;;;;20.42;71.85;100340.44;5042337;28;20227;-82
2022/08/18 01:36:36;;;;;;;15.40;13.93;;;;;;;20.39;72.31;100357.00;5046082;28;20198;-83
2022/08/18 01:39:05;;;;;;;13.83;12.30;;;;;;;20.35;72.69;100355.59;5051797;28;20262;-83
2022/08/18 01:41:32;;;;;;;14.23;12.83;;;;;;;20.32;72.73;100353.22;5051568;28;20221;-83
2022/08/18 01:43:59;;;;;;;14.37;13.07;;;;;;;20.29;72.82;100348.13;5046366;28;20236;-81
2022/08/18 01:46:27;;;;;;;14.97;13.57;;;;;;;20.25;73.27;100344.06;5043200;28;20320;-82
2022/08/18 01:48:54;;;;;;;14.83;13.37;;;;;;;20.24;73.22;100353.22;5044604;28;20203;-82
2022/08/18 01:51:21;;;;;;;15.37;13.80;;;;;;;20.22;73.42;100349.84;5043453;28;20207;-83
2022/08/18 01:53:48;;;;;;;15.27;13.77;;;;;;;20.20;73.19;100346.44;5044863;28;20309;-84
2022/08/18 01:56:17;;;;;;;16.00;14.50;;;;;;;20.15;73.35;100343.38;5049984;28;20215;-82
2022/08/18 01:58:46;;;;;;;16.63;14.40;;;;;;;20.13;73.78;100346.25;5049643;28;20226;-82
2022/08/18 02:01:13;;;;;;;16.23;14.50;;;;;;;20.09;74.23;100340.31;5051602;28;20284;-81
2022/08/18 02:03:44;;;;;;;19.87;17.90;;;;;;;20.10;74.70;100341.16;5050103;28;20243;-83
2022/08/18 02:06:13;;;;;;;28.70;23.63;;;;;;;20.10;76.07;100347.44;5046007;28;20213;-83
2022/08/18 02:08:40;;;;;;;28.90;25.13;;;;;;;20.17;77.16;100346.78;5037376;28;20213;-84
2022/08/18 02:11:07;;;;;;;30.87;25.33;;;;;;;20.25;77.49;100344.06;5056034;28;20470;-84
2022/08/18 02:13:36;;;;;;;29.60;26.47;;;;;;;20.32;78.20;100355.91;5048907;28;20719;-83
2022/08/18 02:16:03;;;;;;;35.90;27.30;;;;;;;20.36;78.33;100355.47;5046187;28;20211;-84
2022/08/18 02:18:33;;;;;;;33.17;28.10;;;;;;;20.42;78.91;100351.25;5050557;28;20231;-82
2022/08/18 02:21:07;;;;;;;34.33;28.43;;;;;;;20.42;79.14;100349.34;5045884;28;20209;-84
2022/08/18 02:23:34;;;;;;;30.20;26.93;;;;;;;20.47;79.21;100346.16;5041631;28;20241;-83
2022/08/18 02:26:04;;;;;;;34.27;27.93;;;;;;;20.49;79.37;100346.00;5053577;28;20643;-81
2022/08/18 02:28:31;;;;;;;39.53;31.20;;;;;;;20.50;79.36;100353.09;5057678;28;20204;-82
2022/08/18 02:31:03;;;;;;;37.47;30.60;;;;;;;20.52;79.38;100351.91;5049644;28;20221;-83
2022/08/18 02:33:30;;;;;;;40.70;31.70;;;;;;;20.54;79.62;100347.19;5052602;28;20599;-82
2022/08/18 02:35:56;;;;;;;32.83;28.73;;;;;;;20.55;79.70;100351.59;5055449;28;20583;-82
2022/08/18 02:38:23;;;;;;;37.40;30.63;;;;;;;20.56;79.73;100349.72;5044303;28;20224;-83
2022/08/18 02:40:54;;;;;;;41.27;32.20;;;;;;;20.57;79.94;100343.31;5054217;28;20212;-82
2022/08/18 02:43:21;;;;;;;41.13;32.23;;;;;;;20.56;79.79;100353.28;5056679;28;20222;-82
2022/08/18 02:45:48;;;;;;;37.50;30.70;;;;;;;20.55;79.81;100340.75;5056515;28;20540;-83
2022/08/18 02:48:16;;;;;;;37.90;29.30;;;;;;;20.55;79.92;100348.88;5047067;28;20211;-82
2022/08/18 02:50:45;;;;;;;35.13;30.43;;;;;;;20.54;80.09;100355.31;5057304;28;20249;-83
2022/08/18 02:53:15;;;;;;;36.00;29.13;;;;;;;20.54;80.05;100344.47;5050902;28;20226;-82
2022/08/18 02:55:42;;;;;;;36.43;29.57;;;;;;;20.54;80.13;100354.47;5057829;28;20571;-83
2022/08/18 02:58:08;;;;;;;42.33;32.63;;;;;;;20.53;80.23;100352.78;5045314;28;20258;-82
2022/08/18 03:00:35;;;;;;;38.73;31.30;;;;;;;20.51;80.04;100344.81;5056776;28;20201;-81
2022/08/18 03:03:01;;;;;;;38.17;31.23;;;;;;;20.51;80.03;100347.53;5051175;28;20235;-83
2022/08/18 03:05:29;;;;;;;41.33;31.00;;;;;;;20.51;79.98;100350.22;5054285;28;20217;-84
2022/08/18 03:07:56;;;;;;;41.37;32.40;;;;;;;20.49;80.16;100352.25;5050361;28;20714;-83
2022/08/18 03:10:22;;;;;;;41.77;33.20;;;;;;;20.48;80.12;100361.38;5055612;28;20353;-84
2022/08/18 03:12:49;;;;;;;40.33;33.53;;;;;;;20.47;80.13;100359.69;5050857;28;20210;-83
2022/08/18 03:15:15;;;;;;;41.00;33.73;;;;;;;20.45;80.19;100362.56;5057063;28;20211;-84
2022/08/18 03:17:42;;;;;;;44.43;34.47;;;;;;;20.44;80.49;100366.28;5051377;28;20626;-84
2022/08/18 03:20:09;;;;;;;43.10;33.33;;;;;;;20.41;80.61;100361.22;5057424;28;20228;-82
2022/08/18 03:22:38;;;;;;;43.90;34.83;;;;;;;20.40;80.53;100359.53;5053499;28;20280;-84
2022/08/18 03:25:05;;;;;;;44.87;35.40;;;;;;;20.39;80.66;100365.09;5047639;28;20209;-83
2022/08/18 03:27:32;;;;;;;44.43;36.17;;;;;;;20.36;81.05;100357.28;5055813;28;20573;-82
2022/08/18 03:29:59;;;;;;;43.90;34.80;;;;;;;20.35;80.99;100355.59;5049627;28;20204;-83
2022/08/18 03:32:26;;;;;;;47.03;35.80;;;;;;;20.34;81.35;100359.31;5054651;28;20212;-82
2022/08/18 03:34:52;;;;;;;42.57;34.97;;;;;;;20.32;81.49;100350.50;5054427;28;20233;-83
2022/08/18 03:37:18;;;;;;;44.83;34.93;;;;;;;20.31;81.60;100354.22;5051744;28;20208;-82
2022/08/18 03:39:46;;;;;;;44.10;35.93;;;;;;;20.29;81.81;100359.81;5049561;28;20239;-82
2022/08/18 03:42:13;;;;;;;45.07;35.37;;;;;;;20.28;81.73;100346.44;5052818;28;20214;-82
2022/08/18 03:44:39;;;;;;;53.40;37.23;;;;;;;20.29;82.11;100358.97;5045443;28;20704;-83
2022/08/18 03:47:08;;;;;;;49.97;38.17;;;;;;;20.28;82.20;100352.69;5060415;28;20215;-82
2022/08/18 03:49:36;;;;;;;47.67;37.73;;;;;;;20.26;82.54;100353.88;5052551;28;20211;-83
2022/08/18 03:52:04;;;;;;;50.33;38.80;;;;;;;20.27;82.53;100358.28;5052147;28;20647;-83
2022/08/18 03:54:32;;;;;;;50.23;36.87;;;;;;;20.26;82.82;100356.56;5060420;28;20236;-83
2022/08/18 03:57:01;;;;;;;49.93;36.97;;;;;;;20.25;82.63;100354.88;5048793;28;20207;-83
2022/08/18 03:59:30;;;;;;;44.87;35.67;;;;;;;20.25;82.76;100361.13;5055504;28;20230;-83
2022/08/18 04:01:57;;;;;;;47.60;36.20;;;;;;;20.26;82.82;100367.41;5048345;28;20214;-84
2022/08/18 04:04:27;;;;;;;46.60;36.23;;;;;;;20.25;82.80;100369.25;5041115;28;20249;-83
2022/08/18 04:06:57;;;;;;;47.53;36.03;;;;;;;20.26;82.87;100373.66;5053149;28;20214;-83
2022/08/18 04:09:24;;;;;;;51.67;36.70;;;;;;;20.24;82.81;100370.28;5043950;28;20206;-82
2022/08/18 04:11:52;;;;;;;51.20;36.33;;;;;;;20.25;82.90;100376.53;5058287;28;20296;-82
2022/08/18 04:14:22;;;;;;;48.87;37.30;;;;;;;20.23;82.96;100375.88;5046827;28;20264;-83
2022/08/18 04:16:49;;;;;;;46.17;37.13;;;;;;;20.22;83.04;100379.59;5053514;28;20234;-84
2022/08/18 04:19:17;;;;;;;46.97;37.30;;;;;;;20.23;82.98;100394.78;5043541;28;20227;-82
2022/08/18 04:21:45;;;;;;;48.43;36.97;;;;;;;20.24;82.97;100391.09;5041929;28;20654;-83
2022/08/18 04:24:14;;;;;;;48.73;38.10;;;;;;;20.24;83.16;100391.09;5048360;28;20252;-85
2022/08/18 04:26:44;;;;;;;50.23;39.60;;;;;;;20.24;82.99;100391.09;5052960;28;20215;-81
2022/08/18 04:29:12;;;;;;;50.43;37.97;;;;;;;20.24;83.22;100388.38;5051150;28;20203;-82
2022/08/18 04:31:40;;;;;;;46.83;36.40;;;;;;;20.25;83.18;100399.00;5059019;28;20205;-82
2022/08/18 04:34:07;;;;;;;49.03;38.40;;;;;;;20.26;83.35;100402.56;5053235;28;20252;-82
2022/08/18 04:36:35;;;;;;;55.47;38.73;;;;;;;20.27;83.36;100409.66;5051061;28;20223;-82
2022/08/18 04:39:03;;;;;;;48.00;38.00;;;;;;;20.28;83.46;100414.06;5046749;28;20227;-82
2022/08/18 04:41:30;;;;;;;47.03;35.40;;;;;;;20.28;83.43;100411.34;5046513;28;20216;-82
2022/08/18 04:43:58;;;;;;;48.37;36.00;;;;;;;20.29;83.17;100404.94;5059830;28;20312;-83
2022/08/18 04:46:25;;;;;;;50.00;37.70;;;;;;;20.29;82.94;100405.78;5050748;28;20208;-83
2022/08/18 04:48:56;;;;;;;49.87;35.93;;;;;;;20.31;82.85;100405.63;5046912;28;20646;-82
2022/08/18 04:51:23;;;;;;;47.77;36.27;;;;;;;20.34;82.93;100403.44;5050234;28;20222;-84
2022/08/18 04:53:49;;;;;;;48.77;37.47;;;;;;;20.35;82.92;100401.56;5047565;28;20750;-82
2022/08/18 04:56:25;;;;;;;50.83;38.63;;;;;;;20.38;82.72;100393.16;5047378;28;20212;-83
2022/08/18 04:58:53;;;;;;;47.73;36.40;;;;;;;20.39;82.94;100395.72;5047963;28;20303;-83
2022/08/18 05:01:22;;;;;;;53.70;38.20;;;;;;;20.41;82.96;100393.69;5039142;28;20211;-82
2022/08/18 05:03:49;;;;;;;53.47;39.03;;;;;;;20.43;82.83;100402.44;5048112;28;20236;-83
2022/08/18 05:06:18;;;;;;;50.60;38.53;;;;;;;20.46;82.85;100409.38;5043922;28;20203;-82
2022/08/18 05:08:47;;;;;;;52.50;38.97;;;;;;;20.48;82.64;100403.81;5044026;28;20215;-82
2022/08/18 05:11:14;;;;;;;52.33;40.33;;;;;;;20.49;82.60;100402.81;5054230;28;20200;-82
2022/08/18 05:13:41;;;;;;;55.40;41.70;;;;;;;20.49;82.93;100400.09;5048095;28;20230;-84
2022/08/18 05:16:09;;;;;;;56.30;39.60;;;;;;;20.51;82.91;100395.38;5046352;28;20262;-82
2022/08/18 05:18:39;;;;;;;51.07;39.60;;;;;;;20.52;82.60;100402.47;5050051;28;20261;-83
2022/08/18 05:21:13;;;;;;;53.63;39.73;;;;;;;20.53;82.83;100409.59;5042264;28;20215;-82
2022/08/18 05:23:41;;;;;;;54.83;39.90;;;;;;;20.55;82.63;100408.41;5044403;28;20240;-83
2022/08/18 05:26:08;;;;;;;52.00;38.70;;;;;;;20.58;82.57;100405.38;5048498;28;20263;-83
2022/08/18 05:28:36;;;;;;;55.07;40.50;;;;;;;20.60;82.81;100408.72;5047727;28;20199;-82
2022/08/18 05:31:06;;;;;;;56.20;40.13;;;;;;;20.63;82.55;100405.69;5044921;28;20319;-82
2022/08/18 05:33:33;;;;;;;52.00;39.67;;;;;;;20.65;82.66;100403.66;5045711;28;20613;-82
2022/08/18 05:36:03;;;;;;;50.27;38.67;;;;;;;20.69;82.42;100406.88;5045258;28;20204;-82
2022/08/18 05:38:49;;;;;;;49.23;37.43;;;;;;;20.72;82.24;100412.81;5043168;28;20261;-82
2022/08/18 05:41:25;;;;;;;52.37;39.77;;;;;;;20.76;82.23;100411.47;5055036;28;20232;-82
2022/08/18 05:43:52;;;;;;;52.37;38.53;;;;;;;20.78;82.00;100412.13;5043494;28;20238;-82
2022/08/18 05:46:21;;;;;;;50.97;38.90;;;;;;;20.83;82.03;100424.31;5056247;28;20332;-82
2022/08/18 05:48:48;;;;;;;49.83;38.83;;;;;;;20.88;81.68;100427.38;5049824;28;20253;-82
2022/08/18 05:51:20;;;;;;;53.30;39.92;;;;;;;20.91;81.50;100425.19;5052621;28;20214;-82
2022/08/18 05:56:46;;;;;;;50.63;38.17;;;;;;;21.01;81.47;100425.00;5050005;28;20699;-82
2022/08/18 05:59:21;;;;;;;48.05;37.10;;;;;;;21.04;81.48;100424.66;5054945;28;20708;-82
2022/08/18 06:01:55;;;;;;;45.58;36.13;;;;;;;21.12;81.38;100430.09;5050116;28;20216;-83
2022/08/18 06:04:42;;;;;;;50.17;37.45;;;;;;;21.19;81.05;100439.19;5037486;28;20229;-84
2022/08/18 06:07:13;;;;;;;45.10;35.78;;;;;;;21.26;80.96;100439.41;5048670;28;20208;-82
2022/08/18 06:09:47;;;;;;;45.83;35.05;;;;;;;21.33;80.67;100424.13;5047817;28;20250;-82
2022/08/18 06:12:22;;;;;;;44.28;34.17;;;;;;;21.38;80.45;100428.03;5035966;28;20217;-82
2022/08/18 06:14:49;;;;;;;44.67;34.55;;;;;;;21.45;80.22;100423.63;5039415;28;20233;-82
2022/08/18 06:17:46;;;;;;;45.35;35.70;;;;;;;21.54;79.85;100431.72;5046634;28;20208;-82
2022/08/18 06:20:23;;;;;;;45.40;34.85;;;;;;;21.61;79.75;100439.00;5053213;28;20706;-82
2022/08/18 06:22:57;;;;;;;46.22;36.15;;;;;;;21.67;79.18;100434.75;5047329;28;20295;-84
2022/08/18 06:25:35;;;;;;;42.85;35.00;;;;;;;21.73;78.93;100437.59;5050121;28;20199;-83
2022/08/18 06:28:05;;;;;;;42.28;34.78;;;;;;;21.80;78.57;100430.47;5038631;28;20576;-82
2022/08/18 06:30:47;;;;;;;42.42;33.15;;;;;;;21.89;78.14;100430.41;5039520;28;20208;-82
2022/08/18 06:33:45;;;;;;;40.95;33.03;;;;;;;21.99;78.11;100436.50;5047317;28;20225;-82
2022/08/18 06:36:20;;;;;;;40.45;32.28;;;;;;;22.07;77.60;100441.91;5033980;28;20245;-82
2022/08/18 06:39:06;;;;;;;41.53;34.10;;;;;;;22.12;76.90;100440.34;5058517;28;20200;-82
2022/08/18 06:41:38;;;;;;;39.42;33.22;;;;;;;22.18;76.31;100441.53;5049081;28;20197;-82
2022/08/18 06:44:07;;;;;;;45.50;35.83;;;;;;;22.23;76.19;100449.09;5043064;28;20225;-82
2022/08/18 06:46:44;;;;;;;46.20;34.80;;;;;;;22.28;75.78;100449.44;5040283;28;20201;-82
2022/08/18 06:49:14;;;;;;;41.38;34.42;;;;;;;22.32;75.03;100450.78;5041075;28;20656;-82
2022/08/18 06:51:40;;;;;;;41.30;35.15;;;;;;;22.37;74.74;100454.66;5048596;28;20207;-83
2022/08/18 06:54:25;;;;;;;43.35;34.67;;;;;;;22.46;74.67;100459.00;5045132;28;20226;-82
2022/08/18 06:56:55;;;;;;;42.85;35.47;;;;;;;22.53;73.97;100456.41;5045480;28;20207;-82
2022/08/18 06:59:26;;;;;;;39.85;34.13;;;;;;;22.56;73.08;100452.50;5052445;28;20201;-82
2022/08/18 07:01:56;;;;;;;40.45;34.67;;;;;;;22.54;72.99;100460.81;5049393;28;20213;-82
2022/08/18 07:04:41;;;;;;;41.85;34.03;;;;;;;22.55;72.75;100461.69;5041596;28;20232;-83
2022/08/18 07:07:19;;;;;;;39.92;32.50;;;;;;;22.54;72.52;100463.53;5043635;28;20214;-82
2022/08/18 07:09:47;;;;;;;36.65;30.10;;;;;;;22.55;72.12;100461.69;5047909;28;20212;-82
2022/08/18 07:12:22;;;;;;;35.67;30.80;;;;;;;22.55;71.75;100473.38;5043050;28;20205;-83
2022/08/18 07:14:51;;;;;;;35.88;31.20;;;;;;;22.56;71.93;100464.22;5050368;28;20228;-82
2022/08/18 07:17:25;;;;;;;36.83;31.30;;;;;;;22.59;71.61;100463.81;5043948;28;20684;-82
2022/08/18 07:20:03;;;;;;;34.70;30.40;;;;;;;22.64;71.54;100466.00;5048284;28;20227;-83
2022/08/18 07:22:31;;;;;;;35.30;30.10;;;;;;;22.68;71.43;100465.47;5046813;28;20201;-82
2022/08/18 07:25:00;;;;;;;38.33;29.77;;;;;;;22.73;71.28;100476.66;5044723;28;20225;-82
2022/08/18 07:27:45;;;;;;;33.97;30.02;;;;;;;22.83;71.31;100474.56;5049010;28;20213;-83
2022/08/18 07:30:24;;;;;;;31.02;27.50;;;;;;;22.94;70.95;100477.88;5053841;28;20301;-83
2022/08/18 07:32:56;;;;;;;33.10;28.15;;;;;;;23.01;70.05;100484.28;5047676;28;20202;-83
2022/08/18 07:35:34;;;;;;;30.98;27.05;;;;;;;23.08;69.89;100487.97;5053458;28;20679;-83
2022/08/18 07:38:07;;;;;;;33.03;28.67;;;;;;;23.17;69.20;100474.13;5047776;28;20251;-84
2022/08/18 07:40:38;;;;;;;32.78;28.38;;;;;;;23.24;68.68;100479.69;5055550;28;20682;-83
2022/08/18 07:43:14;;;;;;;32.78;29.23;;;;;;;23.30;68.41;100478.94;5051723;28;20235;-82
2022/08/18 07:45:43;;;;;;;31.48;28.13;;;;;;;23.39;68.19;100485.16;5052776;28;20201;-82
2022/08/18 07:48:12;;;;;;;29.02;26.02;;;;;;;23.48;67.80;100484.88;5047795;28;20223;-82
2022/08/18 07:50:45;;;;;;;31.52;28.10;;;;;;;23.56;67.49;100485.88;5044874;28;20213;-82
2022/08/18 07:53:37;;;;;;;30.85;27.48;;;;;;;23.63;67.17;100489.56;5050432;28;20236;-82
2022/08/18 07:56:07;;;;;;;34.13;28.48;;;;;;;23.66;66.68;100484.56;5052985;28;20660;-83
2022/08/18 07:58:43;;;;;;;32.22;27.92;;;;;;;23.71;66.43;100484.00;5049414;28;20197;-83
2022/08/18 08:01:20;;;;;;;30.77;26.52;;;;;;;23.76;66.33;100478.88;5053099;28;20710;-82
2022/08/18 08:03:53;;;;;;;30.75;27.65;;;;;;;23.80;66.20;100481.03;5052544;28;20231;-83
2022/08/18 08:06:25;;;;;;;33.13;28.30;;;;;;;23.84;65.90;100476.03;5047600;28;20208;-82
2022/08/18 08:09:02;;;;;;;29.58;26.48;;;;;;;23.86;65.75;100477.53;5039690;28;20206;-82
2022/08/18 08:11:42;;;;;;;30.00;26.25;;;;;;;23.88;65.11;100477.34;5051833;28;20199;-82
2022/08/18 08:14:21;;;;;;;32.88;27.10;;;;;;;23.87;65.03;100478.38;5048389;28;20243;-82
2022/08/18 08:16:50;;;;;;;30.27;26.08;;;;;;;23.87;64.85;100481.94;5046593;28;20204;-83
2022/08/18 08:19:50;;;;;;;29.63;26.52;;;;;;;23.91;64.71;100482.44;5055326;28;20206;-82
2022/08/18 08:22:21;;;;;;;31.25;25.88;;;;;;;23.99;64.54;100479.63;5049880;28;20201;-82
2022/08/18 08:24:59;;;;;;;27.95;25.05;;;;;;;24.11;64.38;100483.56;5053911;28;20225;-83
2022/08/18 08:27:35;;;;;;;28.40;25.40;;;;;;;24.26;63.77;100485.44;5057465;28;20571;-83
2022/08/18 08:30:07;;;;;;;29.95;26.17;;;;;;;24.40;63.64;100490.00;5044629;28;20206;-82
2022/08/18 08:32:36;;;;;;;29.40;26.30;;;;;;;24.51;62.89;100484.94;5051800;28;20201;-82
2022/08/18 08:35:08;;;;;;;25.33;22.70;;;;;;;24.58;62.42;100477.66;5064104;28;20871;-84
2022/08/18 08:37:42;;;;;;;24.50;21.95;;;;;;;24.61;61.81;100473.72;5052791;28;20289;-84
2022/08/18 08:40:15;;;;;;;26.08;23.42;;;;;;;24.69;61.42;100487.22;5054190;28;20213;-83
2022/08/18 08:42:47;;;;;;;29.42;25.23;;;;;;;24.73;60.88;100482.22;5050752;28;20197;-83
2022/08/18 08:45:21;;;;;;;27.98;24.85;;;;;;;24.79;60.50;100485.03;5045120;28;20213;-84
2022/08/18 08:47:57;;;;;;;33.58;29.90;;;;;;;24.84;61.24;100484.44;5049264;28;20589;-83
2022/08/18 08:50:27;;;;;;;33.17;29.48;;;;;;;24.86;61.82;100482.38;5044682;28;20252;-82
2022/08/18 08:52:57;;;;;;;33.60;29.85;;;;;;;24.86;61.59;100494.13;5056303;28;20198;-83
2022/08/18 08:55:27;;;;;;;34.03;30.33;;;;;;;24.83;61.84;100485.50;5043486;28;20201;-82
2022/08/18 08:58:00;;;;;;;34.90;28.65;;;;;;;24.87;61.96;100484.91;5051157;28;20213;-83
2022/08/18 09:00:29;;;;;;;31.98;28.55;;;;;;;24.89;62.21;100474.66;5043630;28;20225;-83
2022/08/18 09:03:16;;;;;;;32.20;28.83;;;;;;;24.91;61.70;100475.28;5046092;28;20590;-82
2022/08/18 09:05:55;;;;;;;31.52;28.02;;;;;;;24.97;61.84;100470.16;5049578;28;20206;-83
2022/08/18 09:08:34;;;;;;;30.98;27.70;;;;;;;25.03;61.33;100469.38;5043528;28;20193;-83
2022/08/18 09:11:26;;;;;;;33.70;28.65;;;;;;;25.08;60.87;100477.81;5039207;28;20209;-83
2022/08/18 09:14:21;;;;;;;32.55;28.23;;;;;;;25.11;61.15;100482.84;5045296;28;20260;-84
2022/08/18 09:17:10;;;;;;;33.40;27.55;;;;;;;25.17;61.34;100482.06;5047859;28;20209;-83
2022/08/18 09:19:57;;;;;;;31.83;28.33;;;;;;;25.27;60.62;100486.16;5056512;28;20203;-82
2022/08/18 09:22:35;;;;;;;33.80;29.58;;;;;;;25.31;60.28;100491.22;5050737;28;20199;-83
2022/08/18 09:25:02;;;;;;;30.95;27.55;;;;;;;25.34;60.10;100497.13;5044088;28;20225;-82
2022/08/18 09:27:43;;;;;;;31.10;27.75;;;;;;;25.43;59.46;100490.50;5050241;28;20291;-83
2022/08/18 09:30:45;;;;;;;29.98;26.73;;;;;;;25.51;59.36;100492.22;5048676;28;20680;-82
2022/08/18 09:33:47;;;;;;;30.08;26.98;;;;;;;25.60;59.00;100497.34;5042894;28;20710;-82
2022/08/18 09:36:36;;;;;;;29.92;26.67;;;;;;;25.70;58.56;100501.63;5043893;28;20279;-82
2022/08/18 09:42:13;;;;;;;29.35;25.55;;;;;;;25.82;57.49;100500.03;5048319;28;21111;-82
2022/08/18 09:45:02;;;;;;;28.52;25.17;;;;;;;25.86;57.43;100501.31;5046905;28;20252;-82
2022/08/18 09:48:23;;;;;;;26.52;23.73;;;;;;;25.92;57.09;100498.63;5046147;28;20212;-82
2022/08/18 09:51:23;;;;;;;26.00;23.27;;;;;;;25.96;56.52;100498.25;5042069;28;20291;-83
2022/08/18 09:54:13;;;;;;;25.48;22.85;;;;;;;25.97;56.31;100498.03;5045472;28;20225;-82
2022/08/18 09:57:21;;;;;;;25.25;22.65;;;;;;;25.98;56.04;100496.16;5040742;28;20252;-82
2022/08/18 09:59:57;;;;;;;27.90;23.95;;;;;;;25.98;56.09;100498.88;5040849;28;20202;-82
2022/08/18 10:03:09;;;;;;;24.67;22.23;;;;;;;26.02;56.41;100495.53;5043494;28;20221;-82
2022/08/18 10:05:37;;;;;;;31.42;26.30;;;;;;;26.12;56.03;100496.03;5040995;28;20235;-82
2022/08/18 10:08:55;;;;;;;26.33;23.73;;;;;;;26.19;55.89;100488.69;5043275;28;20237;-82
2022/08/18 10:11:39;;;;;;;25.27;22.77;;;;;;;26.33;55.59;100497.00;4953841;28;20204;-83
2022/08/18 10:14:27;;;;;;;22.83;20.50;;;;;;;26.42;54.94;100493.03;4950661;28;20230;-82
2022/08/18 10:17:00;;;;;;;23.48;21.23;;;;;;;26.47;54.20;100496.00;5007391;28;20578;-84
2022/08/18 10:19:34;;;;;;;22.38;20.23;;;;;;;26.52;53.63;100498.94;5046820;28;20711;-83
2022/08/18 10:22:05;;;;;;;24.25;21.95;;;;;;;26.56;53.25;100484.69;5046303;28;20222;-83
2022/08/18 10:24:35;;;;;;;22.83;20.52;;;;;;;26.57;52.60;100493.72;5046556;28;20223;-82
2022/08/18 10:27:05;;;;;;;22.83;20.70;;;;;;;26.60;53.01;100485.97;5045016;28;20692;-83
2022/08/18 10:29:59;;;;;;;24.05;21.70;;;;;;;26.70;53.55;100487.44;5048070;28;20201;-82
2022/08/18 10:32:45;;;;;;;24.73;22.30;;;;;;;26.73;53.02;100487.03;5046517;28;20201;-83
2022/08/18 10:35:52;;;;;;;24.52;21.27;;;;;;;26.76;52.51;100492.94;5041413;28;20208;-82
2022/08/18 10:38:24;;;;;;;23.42;21.05;;;;;;;26.84;52.42;100492.75;5050099;28;20197;-83
2022/08/18 10:41:00;;;;;;;21.30;19.27;;;;;;;26.96;52.03;100482.94;5048929;28;20603;-84
2022/08/18 10:43:35;;;;;;;21.05;19.13;;;;;;;27.09;51.97;100481.25;5053314;28;20232;-84
2022/08/18 10:46:01;;;;;;;22.52;20.48;;;;;;;27.19;51.96;100471.59;5042632;28;20197;-84
2022/08/18 10:48:32;;;;;;;20.85;18.95;;;;;;;27.28;51.68;100481.25;5056152;28;20197;-82
2022/08/18 10:51:07;;;;;;;19.45;17.70;;;;;;;27.40;51.71;100486.13;5052073;28;20194;-83
2022/08/18 10:53:42;;;;;;;20.35;18.55;;;;;;;27.48;51.60;100489.47;5054017;28;20216;-83
2022/08/18 10:56:12;;;;;;;19.02;17.27;;;;;;;27.56;50.83;100496.63;5054990;28;20196;-83
2022/08/18 10:58:51;;;;;;;19.02;17.23;;;;;;;27.56;49.80;100494.75;5051007;28;20660;-84
2022/08/18 11:01:37;;;;;;;19.63;17.67;;;;;;;27.58;50.13;100500.03;5046453;28;20217;-83
2022/08/18 11:04:07;;;;;;;19.55;17.65;;;;;;;27.64;50.24;100497.28;5051756;28;20221;-83
2022/08/18 11:06:41;;;;;;;20.02;18.20;;;;;;;27.72;49.50;100489.91;5054867;28;20214;-83
2022/08/18 11:09:09;;;;;;;19.83;18.05;;;;;;;27.77;49.31;100492.88;5054967;28;20642;-83
2022/08/18 11:11:41;;;;;;;21.55;19.52;;;;;;;27.82;49.03;100484.81;5051962;28;20197;-83
2022/08/18 11:14:23;;;;;;;22.38;20.25;;;;;;;27.79;49.30;100486.09;5047105;28;20280;-82
2022/08/18 11:16:58;;;;;;;19.85;18.05;;;;;;;27.83;49.34;100479.16;5051214;28;20587;-82
2022/08/18 11:19:25;;;;;;;19.98;18.25;;;;;;;27.89;49.32;100481.03;5047088;28;20660;-82
2022/08/18 11:21:53;;;;;;;20.42;18.60;;;;;;;27.96;48.99;100478.25;5047952;28;20229;-83
2022/08/18 11:24:22;;;;;;;20.17;18.27;;;;;;;28.03;48.57;100473.63;5051275;28;20599;-82
2022/08/18 11:26:51;;;;;;;18.45;16.88;;;;;;;28.11;48.55;100476.13;5043771;28;20210;-82
2022/08/18 11:29:32;;;;;;;18.50;16.92;;;;;;;28.19;48.30;100464.97;5053700;28;20202;-82
2022/08/18 11:32:03;;;;;;;17.50;16.00;;;;;;;28.26;47.49;100474.00;5043048;28;20201;-82
2022/08/18 11:34:38;;;;;;;16.52;15.13;;;;;;;28.38;47.81;100467.84;5049561;28;20269;-83
2022/08/18 11:37:08;;;;;;;16.15;14.65;;;;;;;28.52;47.87;100469.44;5048590;28;20204;-83
2022/08/18 11:39:43;;;;;;;16.13;14.82;;;;;;;28.57;47.27;100470.47;5042908;28;20202;-83
2022/08/18 11:42:09;;;;;;;17.70;16.02;;;;;;;28.60;46.65;100456.34;5052261;28;20282;-82
2022/08/18 11:44:38;;;;;;;20.15;18.38;;;;;;;28.71;46.75;100454.78;5044113;28;20239;-83
2022/08/18 11:47:13;;;;;;;16.08;14.77;;;;;;;28.78;46.42;100454.78;5052528;28;20216;-82